sensor_id;sensor_type;location;lat;lon;timestamp;P1;durP1;ratioP1;P2;durP2;ratioP2
74342;SDS011;62767;50.300;8.070;2024-01-25T00:00:40;4.13;;;1.98;;
74342;SDS011;62767;50.300;8.070;2024-01-25T00:03:06;3.95;;;1.92;;
74342;SDS011;62767;50.300;8.070;2024-01-25T00:05:32;3.75;;;2.08;;
74342;SDS011;62767;50.300;8.070;2024-01-25T00:07:57;3.80;;;1.85;;
74342;SDS011;62767;50.300;8.070;2024-01-25T00:10:23;3.90;;;2.13;;
74342;SDS011;62767;50.300;8.070;2024-01-25T00:12:49;3.92;;;2.10;;
74342;SDS011;62767;50.300;8.070;2024-01-25T00:15:14;4.53;;;1.95;;
74342;SDS011;62767;50.300;8.070;2024-01-25T00:17:41;3.35;;;1.83;;
74342;SDS011;62767;50.300;8.070;2024-01-25T00:20:08;4.28;;;2.10;;
74342;SDS011;62767;50.300;8.070;2024-01-25T00:22:35;3.40;;;1.58;;
74342;SDS011;62767;50.300;8.070;2024-01-25T00:25:00;3.63;;;1.73;;
74342;SDS011;62767;50.300;8.070;2024-01-25T00:27:26;5.68;;;2.20;;
74342;SDS011;62767;50.300;8.070;2024-01-25T00:29:51;3.20;;;1.70;;
74342;SDS011;62767;50.300;8.070;2024-01-25T00:32:17;3.47;;;1.88;;
74342;SDS011;62767;50.300;8.070;2024-01-25T00:34:42;3.03;;;1.50;;
74342;SDS011;62767;50.300;8.070;2024-01-25T00:37:08;3.80;;;1.80;;
74342;SDS011;62767;50.300;8.070;2024-01-25T00:39:35;2.92;;;1.70;;
74342;SDS011;62767;50.300;8.070;2024-01-25T00:42:03;4.15;;;1.60;;
74342;SDS011;62767;50.300;8.070;2024-01-25T00:44:31;4.93;;;1.90;;
74342;SDS011;62767;50.300;8.070;2024-01-25T00:46:57;4.00;;;2.13;;
74342;SDS011;62767;50.300;8.070;2024-01-25T00:49:22;4.03;;;1.60;;
74342;SDS011;62767;50.300;8.070;2024-01-25T00:51:48;3.67;;;1.70;;
74342;SDS011;62767;50.300;8.070;2024-01-25T00:54:15;4.72;;;1.70;;
74342;SDS011;62767;50.300;8.070;2024-01-25T00:56:41;2.78;;;1.50;;
74342;SDS011;62767;50.300;8.070;2024-01-25T00:59:07;3.72;;;1.85;;
74342;SDS011;62767;50.300;8.070;2024-01-25T01:01:33;4.28;;;1.80;;
74342;SDS011;62767;50.300;8.070;2024-01-25T01:03:59;3.45;;;1.80;;
74342;SDS011;62767;50.300;8.070;2024-01-25T01:06:25;3.40;;;1.73;;
74342;SDS011;62767;50.300;8.070;2024-01-25T01:08:51;2.80;;;1.65;;
74342;SDS011;62767;50.300;8.070;2024-01-25T01:11:18;3.08;;;1.65;;
74342;SDS011;62767;50.300;8.070;2024-01-25T01:13:44;4.03;;;2.05;;
74342;SDS011;62767;50.300;8.070;2024-01-25T01:16:09;3.17;;;1.60;;
74342;SDS011;62767;50.300;8.070;2024-01-25T01:18:35;5.05;;;1.85;;
74342;SDS011;62767;50.300;8.070;2024-01-25T01:21:00;3.08;;;1.70;;
74342;SDS011;62767;50.300;8.070;2024-01-25T01:23:26;3.20;;;1.77;;
74342;SDS011;62767;50.300;8.070;2024-01-25T01:25:52;3.00;;;1.80;;
74342;SDS011;62767;50.300;8.070;2024-01-25T01:28:17;3.42;;;1.83;;
74342;SDS011;62767;50.300;8.070;2024-01-25T01:30:43;2.88;;;1.52;;
74342;SDS011;62767;50.300;8.070;2024-01-25T01:33:08;3.28;;;1.33;;
74342;SDS011;62767;50.300;8.070;2024-01-25T01:35:34;2.92;;;1.70;;
74342;SDS011;62767;50.300;8.070;2024-01-25T01:38:00;3.53;;;1.77;;
74342;SDS011;62767;50.300;8.070;2024-01-25T01:40:25;3.00;;;1.65;;
74342;SDS011;62767;50.300;8.070;2024-01-25T01:42:50;3.70;;;1.63;;
74342;SDS011;62767;50.300;8.070;2024-01-25T01:45:16;2.97;;;1.67;;
74342;SDS011;62767;50.300;8.070;2024-01-25T01:47:41;4.18;;;1.63;;
74342;SDS011;62767;50.300;8.070;2024-01-25T01:50:08;3.00;;;1.40;;
74342;SDS011;62767;50.300;8.070;2024-01-25T01:52:34;3.28;;;1.60;;
74342;SDS011;62767;50.300;8.070;2024-01-25T01:55:00;3.05;;;1.33;;
74342;SDS011;62767;50.300;8.070;2024-01-25T01:57:25;3.15;;;1.58;;
74342;SDS011;62767;50.300;8.070;2024-01-25T01:59:52;2.90;;;1.40;;
74342;SDS011;62767;50.300;8.070;2024-01-25T02:02:18;3.80;;;1.73;;
74342;SDS011;62767;50.300;8.070;2024-01-25T02:04:43;2.42;;;1.30;;
74342;SDS011;62767;50.300;8.070;2024-01-25T02:07:09;3.83;;;1.77;;
74342;SDS011;62767;50.300;8.070;2024-01-25T02:09:35;3.28;;;1.65;;
74342;SDS011;62767;50.300;8.070;2024-01-25T02:12:04;3.20;;;1.60;;
74342;SDS011;62767;50.300;8.070;2024-01-25T02:14:33;4.00;;;1.52;;
74342;SDS011;62767;50.300;8.070;2024-01-25T02:16:58;3.20;;;1.30;;
74342;SDS011;62767;50.300;8.070;2024-01-25T02:19:24;2.72;;;1.30;;
74342;SDS011;62767;50.300;8.070;2024-01-25T02:21:49;3.22;;;1.30;;
74342;SDS011;62767;50.300;8.070;2024-01-25T02:24:19;2.03;;;1.30;;
74342;SDS011;62767;50.300;8.070;2024-01-25T02:26:44;3.30;;;1.65;;
74342;SDS011;62767;50.300;8.070;2024-01-25T02:29:10;3.58;;;1.48;;
74342;SDS011;62767;50.300;8.070;2024-01-25T02:31:35;2.63;;;1.30;;
74342;SDS011;62767;50.300;8.070;2024-01-25T02:34:01;2.97;;;1.50;;
74342;SDS011;62767;50.300;8.070;2024-01-25T02:36:26;4.32;;;1.42;;
74342;SDS011;62767;50.300;8.070;2024-01-25T02:38:52;2.88;;;1.58;;
74342;SDS011;62767;50.300;8.070;2024-01-25T02:41:17;2.92;;;1.50;;
74342;SDS011;62767;50.300;8.070;2024-01-25T02:43:43;2.35;;;1.40;;
74342;SDS011;62767;50.300;8.070;2024-01-25T02:46:08;2.33;;;1.17;;
74342;SDS011;62767;50.300;8.070;2024-01-25T02:48:34;2.97;;;1.40;;
74342;SDS011;62767;50.300;8.070;2024-01-25T02:51:00;2.90;;;1.50;;
74342;SDS011;62767;50.300;8.070;2024-01-25T02:53:25;3.35;;;1.38;;
74342;SDS011;62767;50.300;8.070;2024-01-25T02:55:51;3.00;;;1.30;;
74342;SDS011;62767;50.300;8.070;2024-01-25T02:58:16;2.40;;;1.23;;
74342;SDS011;62767;50.300;8.070;2024-01-25T03:00:42;2.65;;;1.40;;
74342;SDS011;62767;50.300;8.070;2024-01-25T03:03:07;2.08;;;1.10;;
74342;SDS011;62767;50.300;8.070;2024-01-25T03:05:33;2.67;;;1.20;;
74342;SDS011;62767;50.300;8.070;2024-01-25T03:08:00;2.25;;;1.35;;
74342;SDS011;62767;50.300;8.070;2024-01-25T03:10:25;2.28;;;1.20;;
74342;SDS011;62767;50.300;8.070;2024-01-25T03:12:51;2.05;;;1.10;;
74342;SDS011;62767;50.300;8.070;2024-01-25T03:15:17;2.70;;;1.33;;
74342;SDS011;62767;50.300;8.070;2024-01-25T03:17:42;3.22;;;1.30;;
74342;SDS011;62767;50.300;8.070;2024-01-25T03:20:08;2.92;;;1.05;;
74342;SDS011;62767;50.300;8.070;2024-01-25T03:22:34;2.38;;;1.30;;
74342;SDS011;62767;50.300;8.070;2024-01-25T03:25:00;3.03;;;1.25;;
74342;SDS011;62767;50.300;8.070;2024-01-25T03:27:26;2.10;;;1.10;;
74342;SDS011;62767;50.300;8.070;2024-01-25T03:29:51;2.17;;;1.10;;
74342;SDS011;62767;50.300;8.070;2024-01-25T03:32:17;2.75;;;1.25;;
74342;SDS011;62767;50.300;8.070;2024-01-25T03:34:43;2.85;;;1.17;;
74342;SDS011;62767;50.300;8.070;2024-01-25T03:37:09;3.22;;;1.23;;
74342;SDS011;62767;50.300;8.070;2024-01-25T03:39:34;1.52;;;0.98;;
74342;SDS011;62767;50.300;8.070;2024-01-25T03:42:00;2.53;;;1.23;;
74342;SDS011;62767;50.300;8.070;2024-01-25T03:44:25;1.52;;;1.00;;
74342;SDS011;62767;50.300;8.070;2024-01-25T03:46:51;2.55;;;0.90;;
74342;SDS011;62767;50.300;8.070;2024-01-25T03:49:16;3.05;;;0.90;;
74342;SDS011;62767;50.300;8.070;2024-01-25T03:51:42;1.88;;;0.98;;
74342;SDS011;62767;50.300;8.070;2024-01-25T03:54:07;2.33;;;1.08;;
74342;SDS011;62767;50.300;8.070;2024-01-25T03:56:33;3.08;;;1.17;;
74342;SDS011;62767;50.300;8.070;2024-01-25T03:58:59;2.35;;;1.13;;
74342;SDS011;62767;50.300;8.070;2024-01-25T04:01:24;2.15;;;0.98;;
74342;SDS011;62767;50.300;8.070;2024-01-25T04:03:50;1.95;;;1.08;;
74342;SDS011;62767;50.300;8.070;2024-01-25T04:06:15;1.90;;;1.00;;
74342;SDS011;62767;50.300;8.070;2024-01-25T04:08:41;2.58;;;1.10;;
74342;SDS011;62767;50.300;8.070;2024-01-25T04:11:07;2.10;;;1.10;;
74342;SDS011;62767;50.300;8.070;2024-01-25T04:13:34;2.42;;;1.00;;
74342;SDS011;62767;50.300;8.070;2024-01-25T04:16:00;1.52;;;0.90;;
74342;SDS011;62767;50.300;8.070;2024-01-25T04:18:26;2.50;;;1.10;;
74342;SDS011;62767;50.300;8.070;2024-01-25T04:20:51;1.80;;;0.82;;
74342;SDS011;62767;50.300;8.070;2024-01-25T04:23:17;2.03;;;1.20;;
74342;SDS011;62767;50.300;8.070;2024-01-25T04:25:43;2.47;;;1.10;;
74342;SDS011;62767;50.300;8.070;2024-01-25T04:28:08;1.90;;;1.10;;
74342;SDS011;62767;50.300;8.070;2024-01-25T04:30:34;3.50;;;1.33;;
74342;SDS011;62767;50.300;8.070;2024-01-25T04:33:00;3.33;;;1.20;;
74342;SDS011;62767;50.300;8.070;2024-01-25T04:35:25;2.10;;;1.13;;
74342;SDS011;62767;50.300;8.070;2024-01-25T04:37:51;2.72;;;1.30;;
74342;SDS011;62767;50.300;8.070;2024-01-25T04:40:16;1.98;;;0.90;;
74342;SDS011;62767;50.300;8.070;2024-01-25T04:42:42;2.55;;;1.10;;
74342;SDS011;62767;50.300;8.070;2024-01-25T04:45:08;1.60;;;0.80;;
74342;SDS011;62767;50.300;8.070;2024-01-25T04:47:34;2.55;;;1.20;;
74342;SDS011;62767;50.300;8.070;2024-01-25T04:49:59;1.95;;;1.00;;
74342;SDS011;62767;50.300;8.070;2024-01-25T04:52:25;1.90;;;1.00;;
74342;SDS011;62767;50.300;8.070;2024-01-25T04:54:50;1.75;;;0.90;;
74342;SDS011;62767;50.300;8.070;2024-01-25T04:57:16;2.22;;;1.10;;
74342;SDS011;62767;50.300;8.070;2024-01-25T04:59:41;1.80;;;0.80;;
74342;SDS011;62767;50.300;8.070;2024-01-25T05:02:07;2.50;;;0.90;;
74342;SDS011;62767;50.300;8.070;2024-01-25T05:04:32;1.77;;;1.00;;
74342;SDS011;62767;50.300;8.070;2024-01-25T05:06:59;1.60;;;1.00;;
74342;SDS011;62767;50.300;8.070;2024-01-25T05:09:25;2.08;;;1.10;;
74342;SDS011;62767;50.300;8.070;2024-01-25T05:11:50;1.90;;;0.90;;
74342;SDS011;62767;50.300;8.070;2024-01-25T05:14:16;2.55;;;0.88;;
74342;SDS011;62767;50.300;8.070;2024-01-25T05:16:41;3.53;;;1.08;;
74342;SDS011;62767;50.300;8.070;2024-01-25T05:19:07;2.65;;;0.95;;
74342;SDS011;62767;50.300;8.070;2024-01-25T05:21:32;1.20;;;0.90;;
74342;SDS011;62767;50.300;8.070;2024-01-25T05:23:58;3.17;;;0.93;;
74342;SDS011;62767;50.300;8.070;2024-01-25T05:26:23;2.47;;;1.00;;
74342;SDS011;62767;50.300;8.070;2024-01-25T05:28:49;1.90;;;0.95;;
74342;SDS011;62767;50.300;8.070;2024-01-25T05:31:14;2.75;;;1.05;;
74342;SDS011;62767;50.300;8.070;2024-01-25T05:33:41;2.90;;;0.90;;
74342;SDS011;62767;50.300;8.070;2024-01-25T05:36:08;2.42;;;0.95;;
74342;SDS011;62767;50.300;8.070;2024-01-25T05:38:34;1.38;;;0.80;;
74342;SDS011;62767;50.300;8.070;2024-01-25T05:40:59;2.10;;;0.93;;
74342;SDS011;62767;50.300;8.070;2024-01-25T05:43:25;2.67;;;0.90;;
74342;SDS011;62767;50.300;8.070;2024-01-25T05:45:50;2.53;;;1.08;;
74342;SDS011;62767;50.300;8.070;2024-01-25T05:48:16;1.73;;;0.90;;
74342;SDS011;62767;50.300;8.070;2024-01-25T05:50:41;2.38;;;0.90;;
74342;SDS011;62767;50.300;8.070;2024-01-25T05:53:07;1.30;;;0.80;;
74342;SDS011;62767;50.300;8.070;2024-01-25T05:55:32;2.03;;;0.73;;
74342;SDS011;62767;50.300;8.070;2024-01-25T05:57:58;1.48;;;0.75;;
74342;SDS011;62767;50.300;8.070;2024-01-25T06:00:24;1.40;;;0.80;;
74342;SDS011;62767;50.300;8.070;2024-01-25T06:02:49;2.30;;;1.10;;
74342;SDS011;62767;50.300;8.070;2024-01-25T06:05:15;2.13;;;1.23;;
74342;SDS011;62767;50.300;8.070;2024-01-25T06:07:40;1.98;;;0.90;;
74342;SDS011;62767;50.300;8.070;2024-01-25T06:10:06;2.10;;;0.90;;
74342;SDS011;62767;50.300;8.070;2024-01-25T06:12:32;2.25;;;1.02;;
74342;SDS011;62767;50.300;8.070;2024-01-25T06:14:58;1.27;;;0.85;;
74342;SDS011;62767;50.300;8.070;2024-01-25T06:17:24;2.00;;;0.70;;
74342;SDS011;62767;50.300;8.070;2024-01-25T06:19:49;2.78;;;1.00;;
74342;SDS011;62767;50.300;8.070;2024-01-25T06:22:15;2.00;;;0.80;;
74342;SDS011;62767;50.300;8.070;2024-01-25T06:24:42;1.85;;;0.90;;
74342;SDS011;62767;50.300;8.070;2024-01-25T06:27:09;3.25;;;1.40;;
74342;SDS011;62767;50.300;8.070;2024-01-25T06:29:35;1.90;;;1.05;;
74342;SDS011;62767;50.300;8.070;2024-01-25T06:32:00;1.88;;;0.80;;
74342;SDS011;62767;50.300;8.070;2024-01-25T06:34:26;1.77;;;1.02;;
74342;SDS011;62767;50.300;8.070;2024-01-25T06:36:51;2.05;;;1.08;;
74342;SDS011;62767;50.300;8.070;2024-01-25T06:39:17;2.13;;;1.05;;
74342;SDS011;62767;50.300;8.070;2024-01-25T06:41:43;2.15;;;0.98;;
74342;SDS011;62767;50.300;8.070;2024-01-25T06:44:08;1.92;;;0.73;;
74342;SDS011;62767;50.300;8.070;2024-01-25T06:46:34;2.63;;;0.90;;
74342;SDS011;62767;50.300;8.070;2024-01-25T06:49:00;1.05;;;0.80;;
74342;SDS011;62767;50.300;8.070;2024-01-25T06:51:25;1.85;;;0.65;;
74342;SDS011;62767;50.300;8.070;2024-01-25T06:53:51;2.05;;;0.80;;
74342;SDS011;62767;50.300;8.070;2024-01-25T06:56:16;4.63;;;1.10;;
74342;SDS011;62767;50.300;8.070;2024-01-25T06:58:42;1.85;;;1.05;;
74342;SDS011;62767;50.300;8.070;2024-01-25T07:01:07;2.10;;;0.93;;
74342;SDS011;62767;50.300;8.070;2024-01-25T07:03:33;3.15;;;0.93;;
74342;SDS011;62767;50.300;8.070;2024-01-25T07:05:58;3.72;;;1.02;;
74342;SDS011;62767;50.300;8.070;2024-01-25T07:08:24;2.15;;;0.90;;
74342;SDS011;62767;50.300;8.070;2024-01-25T07:10:49;2.17;;;0.90;;
74342;SDS011;62767;50.300;8.070;2024-01-25T07:13:15;3.97;;;0.98;;
74342;SDS011;62767;50.300;8.070;2024-01-25T07:15:41;2.08;;;0.80;;
74342;SDS011;62767;50.300;8.070;2024-01-25T07:18:07;2.53;;;1.20;;
74342;SDS011;62767;50.300;8.070;2024-01-25T07:20:33;2.20;;;0.85;;
74342;SDS011;62767;50.300;8.070;2024-01-25T07:22:59;1.52;;;0.70;;
74342;SDS011;62767;50.300;8.070;2024-01-25T07:25:24;3.38;;;1.08;;
74342;SDS011;62767;50.300;8.070;2024-01-25T07:27:50;2.60;;;0.93;;
74342;SDS011;62767;50.300;8.070;2024-01-25T07:30:16;2.63;;;1.05;;
74342;SDS011;62767;50.300;8.070;2024-01-25T07:32:41;1.92;;;0.90;;
74342;SDS011;62767;50.300;8.070;2024-01-25T07:35:08;4.60;;;1.08;;
74342;SDS011;62767;50.300;8.070;2024-01-25T07:37:37;2.53;;;0.88;;
74342;SDS011;62767;50.300;8.070;2024-01-25T07:43:23;1.65;;;0.80;;
74342;SDS011;62767;50.300;8.070;2024-01-25T07:45:48;2.88;;;1.00;;
74342;SDS011;62767;50.300;8.070;2024-01-25T07:48:14;2.75;;;0.85;;
74342;SDS011;62767;50.300;8.070;2024-01-25T07:50:39;1.27;;;0.88;;
74342;SDS011;62767;50.300;8.070;2024-01-25T07:53:05;2.13;;;1.13;;
74342;SDS011;62767;50.300;8.070;2024-01-25T07:55:31;1.85;;;0.82;;
74342;SDS011;62767;50.300;8.070;2024-01-25T07:57:56;2.72;;;1.10;;
74342;SDS011;62767;50.300;8.070;2024-01-25T08:00:22;3.00;;;0.85;;
74342;SDS011;62767;50.300;8.070;2024-01-25T08:02:47;2.35;;;1.00;;
74342;SDS011;62767;50.300;8.070;2024-01-25T08:05:13;1.70;;;0.70;;
74342;SDS011;62767;50.300;8.070;2024-01-25T08:07:38;2.75;;;0.93;;
74342;SDS011;62767;50.300;8.070;2024-01-25T08:10:04;2.47;;;1.00;;
74342;SDS011;62767;50.300;8.070;2024-01-25T08:12:30;3.80;;;1.23;;
74342;SDS011;62767;50.300;8.070;2024-01-25T08:14:56;2.33;;;1.02;;
74342;SDS011;62767;50.300;8.070;2024-01-25T08:17:21;2.03;;;1.10;;
74342;SDS011;62767;50.300;8.070;2024-01-25T08:19:47;1.80;;;0.85;;
74342;SDS011;62767;50.300;8.070;2024-01-25T08:22:12;1.48;;;0.80;;
74342;SDS011;62767;50.300;8.070;2024-01-25T08:24:39;2.17;;;0.88;;
74342;SDS011;62767;50.300;8.070;2024-01-25T08:27:05;4.93;;;1.05;;
74342;SDS011;62767;50.300;8.070;2024-01-25T08:29:32;2.38;;;0.90;;
74342;SDS011;62767;50.300;8.070;2024-01-25T08:31:58;2.40;;;1.10;;
74342;SDS011;62767;50.300;8.070;2024-01-25T08:34:23;3.53;;;1.50;;
74342;SDS011;62767;50.300;8.070;2024-01-25T08:36:49;2.72;;;1.00;;
74342;SDS011;62767;50.300;8.070;2024-01-25T08:39:14;2.15;;;1.10;;
74342;SDS011;62767;50.300;8.070;2024-01-25T08:41:41;2.17;;;1.10;;
74342;SDS011;62767;50.300;8.070;2024-01-25T08:44:07;2.80;;;1.20;;
74342;SDS011;62767;50.300;8.070;2024-01-25T08:46:33;3.10;;;1.38;;
74342;SDS011;62767;50.300;8.070;2024-01-25T08:48:58;3.38;;;1.20;;
74342;SDS011;62767;50.300;8.070;2024-01-25T08:51:24;3.50;;;1.27;;
74342;SDS011;62767;50.300;8.070;2024-01-25T08:53:49;1.40;;;0.98;;
74342;SDS011;62767;50.300;8.070;2024-01-25T08:58:42;2.38;;;1.10;;
74342;SDS011;62767;50.300;8.070;2024-01-25T09:01:07;1.85;;;1.00;;
74342;SDS011;62767;50.300;8.070;2024-01-25T09:03:33;1.85;;;1.10;;
74342;SDS011;62767;50.300;8.070;2024-01-25T09:05:58;1.98;;;0.93;;
74342;SDS011;62767;50.300;8.070;2024-01-25T09:08:30;3.35;;;0.95;;
74342;SDS011;62767;50.300;8.070;2024-01-25T09:13:22;2.30;;;1.05;;
74342;SDS011;62767;50.300;8.070;2024-01-25T09:15:47;2.25;;;0.88;;
74342;SDS011;62767;50.300;8.070;2024-01-25T09:18:13;2.80;;;0.93;;
74342;SDS011;62767;50.300;8.070;2024-01-25T09:20:39;2.90;;;1.17;;
74342;SDS011;62767;50.300;8.070;2024-01-25T09:23:06;3.03;;;1.20;;
74342;SDS011;62767;50.300;8.070;2024-01-25T09:25:31;1.88;;;1.08;;
74342;SDS011;62767;50.300;8.070;2024-01-25T09:27:57;1.83;;;1.00;;
74342;SDS011;62767;50.300;8.070;2024-01-25T09:30:23;3.22;;;1.10;;
74342;SDS011;62767;50.300;8.070;2024-01-25T09:32:48;2.30;;;1.02;;
74342;SDS011;62767;50.300;8.070;2024-01-25T09:35:14;2.40;;;1.15;;
74342;SDS011;62767;50.300;8.070;2024-01-25T09:37:39;2.80;;;1.35;;
74342;SDS011;62767;50.300;8.070;2024-01-25T09:40:05;3.03;;;1.20;;
74342;SDS011;62767;50.300;8.070;2024-01-25T09:42:33;2.47;;;1.30;;
74342;SDS011;62767;50.300;8.070;2024-01-25T09:45:01;2.13;;;1.15;;
74342;SDS011;62767;50.300;8.070;2024-01-25T09:47:30;2.22;;;0.90;;
74342;SDS011;62767;50.300;8.070;2024-01-25T09:49:55;3.33;;;1.48;;
74342;SDS011;62767;50.300;8.070;2024-01-25T09:52:21;3.30;;;1.20;;
74342;SDS011;62767;50.300;8.070;2024-01-25T09:54:51;3.45;;;1.40;;
74342;SDS011;62767;50.300;8.070;2024-01-25T09:57:19;2.83;;;1.38;;
74342;SDS011;62767;50.300;8.070;2024-01-25T09:59:49;2.70;;;1.20;;
74342;SDS011;62767;50.300;8.070;2024-01-25T10:02:20;2.25;;;1.25;;
74342;SDS011;62767;50.300;8.070;2024-01-25T10:04:49;3.00;;;1.20;;
74342;SDS011;62767;50.300;8.070;2024-01-25T10:07:34;2.08;;;1.23;;
74342;SDS011;62767;50.300;8.070;2024-01-25T10:10:07;2.92;;;1.50;;
74342;SDS011;62767;50.300;8.070;2024-01-25T10:12:34;2.35;;;1.15;;
74342;SDS011;62767;50.300;8.070;2024-01-25T10:14:59;2.63;;;1.40;;
74342;SDS011;62767;50.300;8.070;2024-01-25T10:17:25;3.20;;;1.30;;
74342;SDS011;62767;50.300;8.070;2024-01-25T10:19:51;3.75;;;1.50;;
74342;SDS011;62767;50.300;8.070;2024-01-25T10:22:17;2.92;;;1.35;;
74342;SDS011;62767;50.300;8.070;2024-01-25T10:24:43;2.53;;;1.27;;
74342;SDS011;62767;50.300;8.070;2024-01-25T10:27:09;4.43;;;1.58;;
74342;SDS011;62767;50.300;8.070;2024-01-25T10:29:35;3.38;;;1.30;;
74342;SDS011;62767;50.300;8.070;2024-01-25T10:32:04;2.72;;;1.40;;
74342;SDS011;62767;50.300;8.070;2024-01-25T10:34:32;2.90;;;1.30;;
74342;SDS011;62767;50.300;8.070;2024-01-25T10:37:06;2.53;;;1.50;;
74342;SDS011;62767;50.300;8.070;2024-01-25T10:39:33;2.67;;;1.40;;
74342;SDS011;62767;50.300;8.070;2024-01-25T10:41:59;2.90;;;1.48;;
74342;SDS011;62767;50.300;8.070;2024-01-25T10:44:25;3.35;;;1.92;;
74342;SDS011;62767;50.300;8.070;2024-01-25T10:46:51;3.33;;;1.40;;
74342;SDS011;62767;50.300;8.070;2024-01-25T10:49:19;3.17;;;1.50;;
74342;SDS011;62767;50.300;8.070;2024-01-25T10:51:45;3.53;;;1.80;;
74342;SDS011;62767;50.300;8.070;2024-01-25T10:54:12;3.53;;;1.58;;
74342;SDS011;62767;50.300;8.070;2024-01-25T10:56:42;3.28;;;1.48;;
74342;SDS011;62767;50.300;8.070;2024-01-25T10:59:08;3.05;;;1.67;;
74342;SDS011;62767;50.300;8.070;2024-01-25T11:01:36;3.05;;;1.42;;
74342;SDS011;62767;50.300;8.070;2024-01-25T11:04:01;3.08;;;1.38;;
74342;SDS011;62767;50.300;8.070;2024-01-25T11:06:27;3.20;;;1.40;;
74342;SDS011;62767;50.300;8.070;2024-01-25T11:09:05;3.97;;;1.73;;
74342;SDS011;62767;50.300;8.070;2024-01-25T11:11:32;3.35;;;1.60;;
74342;SDS011;62767;50.300;8.070;2024-01-25T11:14:01;3.47;;;1.67;;
74342;SDS011;62767;50.300;8.070;2024-01-25T11:16:30;3.40;;;1.55;;
74342;SDS011;62767;50.300;8.070;2024-01-25T11:18:58;2.78;;;1.58;;
74342;SDS011;62767;50.300;8.070;2024-01-25T11:24:11;3.15;;;1.75;;
74342;SDS011;62767;50.300;8.070;2024-01-25T11:26:44;3.13;;;1.90;;
74342;SDS011;62767;50.300;8.070;2024-01-25T11:29:17;3.80;;;1.63;;
74342;SDS011;62767;50.300;8.070;2024-01-25T11:31:44;3.22;;;1.73;;
74342;SDS011;62767;50.300;8.070;2024-01-25T11:34:10;4.07;;;1.75;;
74342;SDS011;62767;50.300;8.070;2024-01-25T11:36:37;3.03;;;1.40;;
74342;SDS011;62767;50.300;8.070;2024-01-25T11:39:03;3.17;;;1.60;;
74342;SDS011;62767;50.300;8.070;2024-01-25T11:41:30;3.13;;;1.70;;
74342;SDS011;62767;50.300;8.070;2024-01-25T11:43:56;2.75;;;1.60;;
74342;SDS011;62767;50.300;8.070;2024-01-25T11:46:22;3.20;;;1.80;;
74342;SDS011;62767;50.300;8.070;2024-01-25T11:48:47;4.30;;;2.05;;
74342;SDS011;62767;50.300;8.070;2024-01-25T11:51:13;4.53;;;1.67;;
74342;SDS011;62767;50.300;8.070;2024-01-25T11:53:39;4.35;;;1.80;;
74342;SDS011;62767;50.300;8.070;2024-01-25T11:56:06;3.22;;;1.80;;
74342;SDS011;62767;50.300;8.070;2024-01-25T11:58:35;3.03;;;1.65;;
74342;SDS011;62767;50.300;8.070;2024-01-25T12:01:02;3.75;;;1.70;;
74342;SDS011;62767;50.300;8.070;2024-01-25T12:03:31;3.25;;;1.85;;
74342;SDS011;62767;50.300;8.070;2024-01-25T12:08:24;3.72;;;1.90;;
74342;SDS011;62767;50.300;8.070;2024-01-25T12:10:49;3.33;;;1.63;;
74342;SDS011;62767;50.300;8.070;2024-01-25T12:13:16;2.97;;;1.60;;
74342;SDS011;62767;50.300;8.070;2024-01-25T12:15:42;3.75;;;2.03;;
74342;SDS011;62767;50.300;8.070;2024-01-25T12:18:07;3.78;;;2.17;;
74342;SDS011;62767;50.300;8.070;2024-01-25T12:20:35;3.40;;;1.50;;
74342;SDS011;62767;50.300;8.070;2024-01-25T12:23:01;3.50;;;1.65;;
74342;SDS011;62767;50.300;8.070;2024-01-25T12:25:26;3.60;;;1.92;;
74342;SDS011;62767;50.300;8.070;2024-01-25T12:27:53;3.53;;;1.83;;
74342;SDS011;62767;50.300;8.070;2024-01-25T12:30:18;3.38;;;1.52;;
74342;SDS011;62767;50.300;8.070;2024-01-25T12:32:44;3.45;;;1.80;;
74342;SDS011;62767;50.300;8.070;2024-01-25T12:35:10;3.45;;;1.52;;
74342;SDS011;62767;50.300;8.070;2024-01-25T12:37:36;3.22;;;1.92;;
74342;SDS011;62767;50.300;8.070;2024-01-25T12:40:01;2.88;;;1.75;;
74342;SDS011;62767;50.300;8.070;2024-01-25T12:42:27;2.95;;;1.55;;
74342;SDS011;62767;50.300;8.070;2024-01-25T12:44:53;3.45;;;1.80;;
74342;SDS011;62767;50.300;8.070;2024-01-25T12:47:19;3.72;;;1.88;;
74342;SDS011;62767;50.300;8.070;2024-01-25T12:49:45;3.28;;;1.60;;
74342;SDS011;62767;50.300;8.070;2024-01-25T12:52:11;3.85;;;1.67;;
74342;SDS011;62767;50.300;8.070;2024-01-25T12:54:38;3.90;;;1.75;;
74342;SDS011;62767;50.300;8.070;2024-01-25T12:57:04;2.88;;;1.67;;
74342;SDS011;62767;50.300;8.070;2024-01-25T12:59:30;2.92;;;1.67;;
74342;SDS011;62767;50.300;8.070;2024-01-25T13:01:56;3.55;;;1.67;;
74342;SDS011;62767;50.300;8.070;2024-01-25T13:04:22;3.55;;;1.83;;
74342;SDS011;62767;50.300;8.070;2024-01-25T13:06:48;3.75;;;2.00;;
74342;SDS011;62767;50.300;8.070;2024-01-25T13:09:14;4.50;;;2.17;;
74342;SDS011;62767;50.300;8.070;2024-01-25T13:11:43;4.32;;;2.08;;
74342;SDS011;62767;50.300;8.070;2024-01-25T13:14:09;4.15;;;2.00;;
74342;SDS011;62767;50.300;8.070;2024-01-25T13:16:34;4.10;;;1.98;;
74342;SDS011;62767;50.300;8.070;2024-01-25T13:19:00;3.67;;;1.85;;
74342;SDS011;62767;50.300;8.070;2024-01-25T13:21:25;4.80;;;2.30;;
74342;SDS011;62767;50.300;8.070;2024-01-25T13:23:51;4.57;;;2.70;;
74342;SDS011;62767;50.300;8.070;2024-01-25T13:26:16;4.15;;;2.10;;
74342;SDS011;62767;50.300;8.070;2024-01-25T13:28:42;7.05;;;3.08;;
74342;SDS011;62767;50.300;8.070;2024-01-25T13:31:07;5.40;;;2.30;;
74342;SDS011;62767;50.300;8.070;2024-01-25T13:33:33;6.28;;;2.83;;
74342;SDS011;62767;50.300;8.070;2024-01-25T13:35:58;5.95;;;2.72;;
74342;SDS011;62767;50.300;8.070;2024-01-25T13:38:24;6.22;;;3.08;;
74342;SDS011;62767;50.300;8.070;2024-01-25T13:40:50;4.05;;;2.30;;
74342;SDS011;62767;50.300;8.070;2024-01-25T13:43:15;4.75;;;2.70;;
74342;SDS011;62767;50.300;8.070;2024-01-25T13:45:41;4.95;;;2.15;;
74342;SDS011;62767;50.300;8.070;2024-01-25T13:48:07;6.05;;;2.55;;
74342;SDS011;62767;50.300;8.070;2024-01-25T13:50:32;5.32;;;2.90;;
74342;SDS011;62767;50.300;8.070;2024-01-25T13:52:57;5.38;;;2.75;;
74342;SDS011;62767;50.300;8.070;2024-01-25T13:55:23;5.38;;;2.92;;
74342;SDS011;62767;50.300;8.070;2024-01-25T13:57:48;5.53;;;2.75;;
74342;SDS011;62767;50.300;8.070;2024-01-25T14:00:14;5.45;;;2.97;;
74342;SDS011;62767;50.300;8.070;2024-01-25T14:02:40;4.93;;;2.50;;
74342;SDS011;62767;50.300;8.070;2024-01-25T14:05:10;5.60;;;2.70;;
74342;SDS011;62767;50.300;8.070;2024-01-25T14:07:36;6.07;;;2.88;;
74342;SDS011;62767;50.300;8.070;2024-01-25T14:10:01;5.75;;;3.00;;
74342;SDS011;62767;50.300;8.070;2024-01-25T14:12:27;5.10;;;2.92;;
74342;SDS011;62767;50.300;8.070;2024-01-25T14:14:53;4.78;;;2.55;;
74342;SDS011;62767;50.300;8.070;2024-01-25T14:17:18;6.13;;;2.90;;
74342;SDS011;62767;50.300;8.070;2024-01-25T14:19:44;5.40;;;2.65;;
74342;SDS011;62767;50.300;8.070;2024-01-25T14:22:09;7.32;;;2.72;;
74342;SDS011;62767;50.300;8.070;2024-01-25T14:24:36;4.97;;;3.08;;
74342;SDS011;62767;50.300;8.070;2024-01-25T14:27:01;5.30;;;2.63;;
74342;SDS011;62767;50.300;8.070;2024-01-25T14:29:27;5.75;;;2.88;;
74342;SDS011;62767;50.300;8.070;2024-01-25T14:31:57;5.57;;;2.97;;
74342;SDS011;62767;50.300;8.070;2024-01-25T14:34:23;5.40;;;2.85;;
74342;SDS011;62767;50.300;8.070;2024-01-25T14:36:48;5.75;;;2.92;;
74342;SDS011;62767;50.300;8.070;2024-01-25T14:39:15;5.32;;;2.80;;
74342;SDS011;62767;50.300;8.070;2024-01-25T14:41:42;6.70;;;3.00;;
74342;SDS011;62767;50.300;8.070;2024-01-25T14:44:09;5.53;;;3.10;;
74342;SDS011;62767;50.300;8.070;2024-01-25T14:46:34;6.57;;;3.35;;
74342;SDS011;62767;50.300;8.070;2024-01-25T14:49:00;5.90;;;3.17;;
74342;SDS011;62767;50.300;8.070;2024-01-25T14:51:25;6.03;;;3.03;;
74342;SDS011;62767;50.300;8.070;2024-01-25T14:53:51;6.35;;;3.38;;